Time;durP1;ratioP1;P1;durP2;ratioP2;P2;SDS_P1;SDS_P2;PMS_P1;PMS_P2;Temp;Humidity;BMP_temperature;BMP_pressure;BME280_temperature;BME280_humidity;BME280_pressure;Samples;Min_cycle;Max_cycle;Signal;HPM_P1;HPM_P2
2022/05/23 00:01:03;;;;;;;59.47;3.20;;;;;;;;;;5053001;28;20471;-76
2022/05/23 00:03:31;;;;;;;59.47;3.00;;;;;;;;;;5053050;28;20454;-76
2022/05/23 00:06:00;;;;;;;59.10;3.00;;;;;;;;;;5052553;28;20825;-76
2022/05/23 00:08:28;;;;;;;59.03;3.10;;;;;;;;;;5052365;28;20479;-76
2022/05/23 00:10:55;;;;;;;60.63;3.40;;;;;;;;;;5052851;28;20480;-76
2022/05/23 00:13:22;;;;;;;59.27;3.00;;;;;;;;;;5052806;28;20453;-76
2022/05/23 00:15:49;;;;;;;59.10;3.10;;;;;;;;;;5053216;28;20485;-76
2022/05/23 00:18:17;;;;;;;59.40;3.27;;;;;;;;;;5052162;28;20885;-76
2022/05/23 00:20:44;;;;;;;58.87;3.30;;;;;;;;;;5052527;28;21021;-76
2022/05/23 00:23:12;;;;;;;59.60;3.10;;;;;;;;;;5053185;28;20449;-76
2022/05/23 00:25:40;;;;;;;59.07;2.87;;;;;;;;;;5052441;28;20497;-76
2022/05/23 00:28:07;;;;;;;59.37;3.30;;;;;;;;;;5051748;28;20555;-76
2022/05/23 00:30:34;;;;;;;59.47;3.30;;;;;;;;;;5052548;28;20464;-76
2022/05/23 00:35:51;;;;;;;59.63;3.10;;;;;;;;;;5052919;28;20525;-76
2022/05/23 00:38:20;;;;;;;59.60;3.30;;;;;;;;;;5051890;28;20464;-77
2022/05/23 00:40:50;;;;;;;59.37;3.00;;;;;;;;;;5052400;28;20478;-77
2022/05/23 00:43:19;;;;;;;59.07;3.07;;;;;;;;;;5052425;28;20500;-76
2022/05/23 00:45:48;;;;;;;59.20;3.10;;;;;;;;;;5052356;28;20456;-77
2022/05/23 00:48:16;;;;;;;59.17;2.93;;;;;;;;;;5051637;28;21058;-76
2022/05/23 00:50:44;;;;;;;60.30;4.50;;;;;;;;;;5052312;28;20461;-77
2022/05/23 00:53:12;;;;;;;59.10;3.20;;;;;;;;;;5052247;28;20444;-77
2022/05/23 00:55:41;;;;;;;59.13;3.00;;;;;;;;;;5052298;28;20859;-77
2022/05/23 00:58:12;;;;;;;59.37;3.00;;;;;;;;;;5051485;28;20456;-77
2022/05/23 01:00:39;;;;;;;61.60;3.33;;;;;;;;;;5052220;28;20980;-77
2022/05/23 01:03:07;;;;;;;59.17;3.00;;;;;;;;;;5063131;28;20444;-77
2022/05/23 01:05:36;;;;;;;59.97;4.43;;;;;;;;;;5071510;28;20969;-76
2022/05/23 01:08:04;;;;;;;59.40;3.53;;;;;;;;;;5071322;28;20491;-76
2022/05/23 01:10:32;;;;;;;60.80;3.83;;;;;;;;;;5071780;28;21010;-77
2022/05/23 01:13:01;;;;;;;59.17;3.10;;;;;;;;;;5071799;28;20453;-76
2022/05/23 01:15:29;;;;;;;59.50;3.40;;;;;;;;;;5072107;28;20585;-76
2022/05/23 01:17:56;;;;;;;59.10;3.20;;;;;;;;;;5071304;28;20451;-76
2022/05/23 01:20:24;;;;;;;59.17;3.30;;;;;;;;;;5071386;28;20752;-77
2022/05/23 01:22:54;;;;;;;59.40;3.67;;;;;;;;;;5071967;28;20834;-76
2022/05/23 01:25:31;;;;;;;59.37;3.30;;;;;;;;;;5071852;28;20825;-76
2022/05/23 01:27:58;;;;;;;59.07;3.10;;;;;;;;;;5070538;28;20461;-77
2022/05/23 01:30:26;;;;;;;59.17;3.03;;;;;;;;;;5071533;28;20475;-77
2022/05/23 01:32:53;;;;;;;59.03;3.13;;;;;;;;;;5071423;28;20448;-76
2022/05/23 01:35:20;;;;;;;59.20;3.03;;;;;;;;;;5071494;28;20483;-76
2022/05/23 01:37:47;;;;;;;59.27;3.70;;;;;;;;;;5071005;28;20459;-77
2022/05/23 01:40:15;;;;;;;59.50;3.70;;;;;;;;;;5071340;28;20448;-76
2022/05/23 01:42:44;;;;;;;59.27;2.80;;;;;;;;;;5071460;28;20651;-76
2022/05/23 01:45:12;;;;;;;59.13;3.00;;;;;;;;;;5071538;28;20882;-76
2022/05/23 01:47:40;;;;;;;59.37;3.20;;;;;;;;;;5070181;28;20487;-77
2022/05/23 01:50:07;;;;;;;59.50;3.90;;;;;;;;;;5071237;28;20447;-77
2022/05/23 01:52:35;;;;;;;59.03;3.30;;;;;;;;;;5071349;28;20513;-77
2022/05/23 01:55:02;;;;;;;59.07;3.07;;;;;;;;;;5071759;28;20565;-76
2022/05/23 01:57:29;;;;;;;59.30;3.50;;;;;;;;;;5071032;28;20539;-76
2022/05/23 02:02:47;;;;;;;58.97;2.97;;;;;;;;;;5056360;28;20426;-77
2022/05/23 02:05:15;;;;;;;59.17;3.40;;;;;;;;;;5058130;28;20920;-76
2022/05/23 02:07:42;;;;;;;59.07;3.03;;;;;;;;;;5056561;28;20454;-77
2022/05/23 02:10:09;;;;;;;59.50;3.30;;;;;;;;;;5057411;28;20971;-77
2022/05/23 02:12:37;;;;;;;59.13;3.10;;;;;;;;;;5057882;28;20448;-77
2022/05/23 02:15:06;;;;;;;59.57;3.63;;;;;;;;;;5057732;28;20570;-76
2022/05/23 02:17:33;;;;;;;59.13;3.00;;;;;;;;;;5057849;28;20847;-77
2022/05/23 02:20:02;;;;;;;59.50;3.87;;;;;;;;;;5057547;28;20534;-76
2022/05/23 02:22:29;;;;;;;59.10;3.50;;;;;;;;;;5057605;28;20480;-76
2022/05/23 02:24:56;;;;;;;59.20;3.23;;;;;;;;;;5057996;28;20501;-76
2022/05/23 02:27:23;;;;;;;59.20;3.00;;;;;;;;;;5056594;28;20543;-76
2022/05/23 02:29:50;;;;;;;59.60;3.50;;;;;;;;;;5057744;28;20538;-76
2022/05/23 02:32:19;;;;;;;59.27;3.30;;;;;;;;;;5057695;28;20467;-77
2022/05/23 02:34:46;;;;;;;58.97;2.90;;;;;;;;;;5057400;28;20483;-76
2022/05/23 02:37:13;;;;;;;58.73;2.80;;;;;;;;;;5057109;28;20491;-77
2022/05/23 02:39:40;;;;;;;58.87;3.10;;;;;;;;;;5057314;28;20459;-77
2022/05/23 02:42:08;;;;;;;59.43;3.50;;;;;;;;;;5057389;28;20555;-77
2022/05/23 02:44:35;;;;;;;59.20;3.10;;;;;;;;;;5057654;28;20825;-77
2022/05/23 02:47:02;;;;;;;59.43;3.20;;;;;;;;;;5057212;28;20897;-76
2022/05/23 02:49:32;;;;;;;59.10;3.27;;;;;;;;;;5056774;28;20513;-76
2022/05/23 02:51:59;;;;;;;59.07;2.90;;;;;;;;;;5057485;28;20475;-76
2022/05/23 02:54:26;;;;;;;60.33;3.40;;;;;;;;;;5057070;28;20932;-76
2022/05/23 02:56:53;;;;;;;58.97;2.90;;;;;;;;;;5058080;28;20443;-76
2022/05/23 02:59:20;;;;;;;59.13;2.87;;;;;;;;;;5057060;28;20559;-76
2022/05/23 03:04:33;;;;;;;59.60;3.67;;;;;;;;;;5057334;28;20994;-77
2022/05/23 03:07:01;;;;;;;59.13;3.00;;;;;;;;;;5056977;28;20893;-76
2022/05/23 03:09:30;;;;;;;58.97;3.30;;;;;;;;;;5056547;28;20514;-77
2022/05/23 03:11:57;;;;;;;58.97;2.83;;;;;;;;;;5057426;28;20566;-77
2022/05/23 03:14:24;;;;;;;59.17;2.93;;;;;;;;;;5053091;28;20452;-75
2022/05/23 03:16:51;;;;;;;58.97;3.10;;;;;;;;;;5054096;28;20578;-76
2022/05/23 03:19:18;;;;;;;58.97;3.10;;;;;;;;;;5053532;28;20483;-77
2022/05/23 03:27:16;;;;;;;62.30;3.93;;;;;;;;;;5052929;28;20439;-77
2022/05/23 03:29:43;;;;;;;58.77;3.00;;;;;;;;;;5053926;28;20454;-77
2022/05/23 03:32:10;;;;;;;59.00;2.77;;;;;;;;;;5054259;28;20905;-77
2022/05/23 03:34:38;;;;;;;59.67;3.30;;;;;;;;;;5053534;28;20439;-76
2022/05/23 03:37:07;;;;;;;58.73;2.57;;;;;;;;;;5053949;28;20543;-77
2022/05/23 03:39:34;;;;;;;58.87;2.63;;;;;;;;;;5053091;28;20472;-77
2022/05/23 03:42:01;;;;;;;59.07;2.93;;;;;;;;;;5053898;28;20472;-77
2022/05/23 03:44:28;;;;;;;58.80;2.90;;;;;;;;;;5053752;28;20478;-77
2022/05/23 03:46:55;;;;;;;58.77;2.70;;;;;;;;;;5053243;28;20827;-77
2022/05/23 03:49:22;;;;;;;59.40;3.10;;;;;;;;;;5053014;28;20530;-77
2022/05/23 03:51:50;;;;;;;58.67;2.60;;;;;;;;;;5053534;28;20468;-77
2022/05/23 03:54:18;;;;;;;58.73;2.63;;;;;;;;;;5053170;28;20503;-77
2022/05/23 03:56:45;;;;;;;58.87;2.67;;;;;;;;;;5053654;28;20846;-77
2022/05/23 03:59:12;;;;;;;58.87;2.80;;;;;;;;;;5052755;28;20532;-77
2022/05/23 04:01:39;;;;;;;58.87;2.77;;;;;;;;;;5052648;28;20512;-77
2022/05/23 04:04:07;;;;;;;58.70;3.07;;;;;;;;;;5053410;28;20484;-77
2022/05/23 04:06:35;;;;;;;58.73;2.80;;;;;;;;;;5052727;28;20449;-77
2022/05/23 04:09:02;;;;;;;59.07;2.70;;;;;;;;;;5051736;28;20460;-77
2022/05/23 04:11:34;;;;;;;58.67;2.50;;;;;;;;;;5053053;28;20478;-75
2022/05/23 04:14:01;;;;;;;58.73;3.00;;;;;;;;;;5052967;28;20552;-77
2022/05/23 04:16:29;;;;;;;59.27;3.33;;;;;;;;;;5053354;28;20480;-77
2022/05/23 04:18:56;;;;;;;59.77;4.00;;;;;;;;;;5052443;28;20827;-77
2022/05/23 04:21:24;;;;;;;59.30;3.33;;;;;;;;;;5052762;28;20538;-77
2022/05/23 04:23:51;;;;;;;58.43;2.73;;;;;;;;;;5053527;28;21025;-77
2022/05/23 04:26:19;;;;;;;60.57;2.97;;;;;;;;;;5053048;28;20481;-77
2022/05/23 04:28:47;;;;;;;58.77;2.90;;;;;;;;;;5053388;28;20531;-77
2022/05/23 04:31:14;;;;;;;58.67;3.00;;;;;;;;;;5054042;28;21011;-77
2022/05/23 04:36:26;;;;;;;58.57;2.73;;;;;;;;;;5053554;28;20524;-76
2022/05/23 04:38:53;;;;;;;59.20;3.40;;;;;;;;;;5052335;28;20556;-74
2022/05/23 04:41:20;;;;;;;59.10;3.10;;;;;;;;;;5053336;28;20895;-77
2022/05/23 04:43:49;;;;;;;59.17;3.10;;;;;;;;;;5053542;28;20539;-77
2022/05/23 04:46:16;;;;;;;59.30;3.20;;;;;;;;;;5054082;28;20458;-78
2022/05/23 04:51:28;;;;;;;59.53;3.47;;;;;;;;;;5053351;28;20511;-77
2022/05/23 04:53:56;;;;;;;59.40;3.27;;;;;;;;;;5052800;28;20449;-77
2022/05/23 04:56:23;;;;;;;59.07;2.90;;;;;;;;;;5052868;28;20495;-77
2022/05/23 04:58:51;;;;;;;59.00;2.80;;;;;;;;;;5052955;28;20459;-77
2022/05/23 05:01:21;;;;;;;59.07;3.60;;;;;;;;;;5053010;28;20518;-76
2022/05/23 05:03:48;;;;;;;59.00;3.30;;;;;;;;;;5052991;28;20449;-77
2022/05/23 05:06:15;;;;;;;59.07;2.90;;;;;;;;;;5052143;28;20449;-76
2022/05/23 05:08:42;;;;;;;58.87;3.10;;;;;;;;;;5051159;28;20989;-75
2022/05/23 05:11:09;;;;;;;59.23;3.30;;;;;;;;;;5052717;28;20470;-76
2022/05/23 05:13:36;;;;;;;58.77;3.00;;;;;;;;;;5051796;28;20543;-76
2022/05/23 05:16:05;;;;;;;59.47;3.33;;;;;;;;;;5051829;28;20488;-76
2022/05/23 05:18:33;;;;;;;58.93;2.90;;;;;;;;;;5051339;28;20447;-76
2022/05/23 05:21:03;;;;;;;62.37;3.13;;;;;;;;;;5051681;28;21039;-76
2022/05/23 05:23:31;;;;;;;58.77;3.00;;;;;;;;;;5051685;28;20967;-76
2022/05/23 05:25:58;;;;;;;58.97;2.80;;;;;;;;;;5051689;28;20456;-76
2022/05/23 05:28:25;;;;;;;58.97;2.90;;;;;;;;;;5050512;28;20560;-76
2022/05/23 05:30:53;;;;;;;60.17;3.90;;;;;;;;;;5052181;28;20559;-76
2022/05/23 05:33:23;;;;;;;59.17;3.10;;;;;;;;;;5051585;28;20489;-76
2022/05/23 05:35:53;;;;;;;60.57;4.30;;;;;;;;;;5051139;28;20653;-76
2022/05/23 05:38:23;;;;;;;58.97;3.37;;;;;;;;;;5050812;28;20551;-76
2022/05/23 05:41:01;;;;;;;60.40;3.60;;;;;;;;;;5052458;28;20619;-75
2022/05/23 05:43:29;;;;;;;60.10;3.40;;;;;;;;;;5051437;28;20828;-76
2022/05/23 05:45:58;;;;;;;59.50;3.60;;;;;;;;;;5051577;28;20451;-75
2022/05/23 05:48:27;;;;;;;59.67;3.50;;;;;;;;;;5050157;28;20462;-76
2022/05/23 05:50:55;;;;;;;58.87;3.10;;;;;;;;;;5051470;28;20462;-75
2022/05/23 05:53:24;;;;;;;59.40;3.50;;;;;;;;;;5051527;28;20457;-76
2022/05/23 05:55:52;;;;;;;60.73;3.77;;;;;;;;;;5051351;28;20576;-76
2022/05/23 05:58:20;;;;;;;59.60;3.50;;;;;;;;;;5050987;28;20537;-76
2022/05/23 06:00:47;;;;;;;59.10;3.20;;;;;;;;;;5051023;28;20466;-75
2022/05/23 06:03:14;;;;;;;100.80;5.77;;;;;;;;;;5051211;28;20456;-75
2022/05/23 06:11:27;;;;;;;59.30;3.10;;;;;;;;;;5050546;28;20583;-76
2022/05/23 06:13:55;;;;;;;59.00;3.17;;;;;;;;;;5050967;28;20442;-75
2022/05/23 06:16:23;;;;;;;59.73;4.27;;;;;;;;;;5051394;28;20490;-75
2022/05/23 06:18:50;;;;;;;59.33;3.73;;;;;;;;;;5050953;28;20837;-75
2022/05/23 06:21:19;;;;;;;59.17;3.30;;;;;;;;;;5050969;28;20479;-76
2022/05/23 06:23:47;;;;;;;58.87;3.00;;;;;;;;;;5051144;28;20453;-75
2022/05/23 06:26:15;;;;;;;59.07;3.00;;;;;;;;;;5051031;28;20465;-75
2022/05/23 06:28:42;;;;;;;62.70;3.87;;;;;;;;;;5049663;28;20468;-75
2022/05/23 06:31:10;;;;;;;58.83;3.17;;;;;;;;;;5051161;28;20470;-75
2022/05/23 06:33:37;;;;;;;58.70;3.37;;;;;;;;;;5051054;28;20447;-75
2022/05/23 06:36:05;;;;;;;58.77;3.30;;;;;;;;;;5051044;28;20482;-75
2022/05/23 06:38:34;;;;;;;58.70;3.07;;;;;;;;;;5050618;28;20473;-75
2022/05/23 06:41:01;;;;;;;59.07;3.40;;;;;;;;;;5050481;28;20473;-75
2022/05/23 06:43:29;;;;;;;59.17;3.73;;;;;;;;;;5050687;28;20946;-75
2022/05/23 06:45:57;;;;;;;59.07;3.10;;;;;;;;;;5051117;28;20546;-75
2022/05/23 06:48:24;;;;;;;58.97;2.67;;;;;;;;;;5051735;28;20543;-76
2022/05/23 06:50:51;;;;;;;58.87;3.20;;;;;;;;;;5054747;28;20470;-76
2022/05/23 06:53:20;;;;;;;59.00;2.77;;;;;;;;;;5054649;28;20677;-76
2022/05/23 06:55:49;;;;;;;59.10;3.00;;;;;;;;;;5054394;28;20453;-76
2022/05/23 06:58:16;;;;;;;59.10;2.80;;;;;;;;;;5054352;28;20490;-76
2022/05/23 07:00:44;;;;;;;59.10;3.00;;;;;;;;;;5054215;28;20501;-76
2022/05/23 07:03:11;;;;;;;58.90;3.03;;;;;;;;;;5054553;28;20546;-76
2022/05/23 07:13:56;;;;;;;60.20;3.23;;;;;;;;;;5054274;28;20864;-76
2022/05/23 07:16:23;;;;;;;58.83;3.00;;;;;;;;;;5054127;28;20486;-76
2022/05/23 07:18:50;;;;;;;58.80;3.30;;;;;;;;;;5053869;28;20538;-76
2022/05/23 07:21:18;;;;;;;58.60;3.13;;;;;;;;;;5054312;28;20558;-76
2022/05/23 07:23:46;;;;;;;60.50;3.87;;;;;;;;;;5054097;28;20546;-76
2022/05/23 07:26:16;;;;;;;92.20;4.40;;;;;;;;;;5054113;28;21031;-76
2022/05/23 07:28:44;;;;;;;59.10;3.07;;;;;;;;;;5052823;28;20466;-76
2022/05/23 07:31:12;;;;;;;58.90;3.20;;;;;;;;;;5054018;28;20478;-76
2022/05/23 07:33:39;;;;;;;58.50;2.63;;;;;;;;;;5053955;28;20459;-76
2022/05/23 07:36:08;;;;;;;59.10;3.33;;;;;;;;;;5053852;28;20479;-76
2022/05/23 07:38:37;;;;;;;59.00;3.90;;;;;;;;;;5053543;28;20542;-76
2022/05/23 07:41:04;;;;;;;58.60;2.80;;;;;;;;;;5053723;28;20507;-76
2022/05/23 07:43:35;;;;;;;63.00;3.43;;;;;;;;;;5053466;28;20462;-76
2022/05/23 07:46:07;;;;;;;59.57;3.20;;;;;;;;;;5053967;28;20452;-76
2022/05/23 07:48:34;;;;;;;58.20;3.13;;;;;;;;;;5052770;28;20459;-76
2022/05/23 07:51:01;;;;;;;58.97;2.90;;;;;;;;;;5053673;28;20581;-76
2022/05/23 08:01:45;;;;;;;63.27;3.80;;;;;;;;;;5053047;28;20525;-76
2022/05/23 08:04:12;;;;;;;58.77;3.30;;;;;;;;;;5053210;28;20829;-76
2022/05/23 08:06:39;;;;;;;58.83;3.07;;;;;;;;;;5053558;28;20438;-76
2022/05/23 08:09:07;;;;;;;58.13;2.87;;;;;;;;;;5052104;28;20478;-76
2022/05/23 08:11:34;;;;;;;59.10;3.30;;;;;;;;;;5053111;28;20474;-76
2022/05/23 08:14:03;;;;;;;58.60;2.90;;;;;;;;;;5053059;28;20455;-76
2022/05/23 08:16:30;;;;;;;58.97;3.10;;;;;;;;;;5053106;28;20585;-76
2022/05/23 08:18:58;;;;;;;59.40;2.90;;;;;;;;;;5052365;28;20520;-76
2022/05/23 08:21:26;;;;;;;59.07;3.73;;;;;;;;;;5052695;28;20482;-76
2022/05/23 08:23:53;;;;;;;57.93;2.80;;;;;;;;;;5052912;28;20460;-77
2022/05/23 08:26:20;;;;;;;58.30;2.77;;;;;;;;;;5053197;28;20466;-76
2022/05/23 08:28:48;;;;;;;58.70;3.10;;;;;;;;;;5051711;28;20455;-76
2022/05/23 08:31:16;;;;;;;58.90;2.97;;;;;;;;;;5052433;28;20478;-75
2022/05/23 08:33:43;;;;;;;58.67;3.40;;;;;;;;;;5052781;28;20486;-76
2022/05/23 08:36:11;;;;;;;58.93;3.07;;;;;;;;;;5053045;28;20551;-76
2022/05/23 08:38:38;;;;;;;58.53;3.03;;;;;;;;;;5052074;28;20466;-76
2022/05/23 08:41:09;;;;;;;58.57;2.53;;;;;;;;;;5052315;28;20556;-76
2022/05/23 08:43:40;;;;;;;58.67;2.80;;;;;;;;;;5052623;28;20449;-76
2022/05/23 08:46:10;;;;;;;66.63;3.67;;;;;;;;;;5052624;28;20543;-76
2022/05/23 08:48:43;;;;;;;58.87;2.73;;;;;;;;;;5051650;28;20858;-75
2022/05/23 08:51:14;;;;;;;58.57;2.90;;;;;;;;;;5052071;28;20564;-76
2022/05/23 08:53:44;;;;;;;59.07;2.90;;;;;;;;;;5052409;28;20953;-76
2022/05/23 08:56:14;;;;;;;58.60;2.80;;;;;;;;;;5052042;28;20445;-76
2022/05/23 08:58:45;;;;;;;60.07;3.00;;;;;;;;;;5051741;28;20993;-76
2022/05/23 09:01:14;;;;;;;59.27;3.50;;;;;;;;;;5051986;28;20472;-76
2022/05/23 09:03:45;;;;;;;59.00;3.03;;;;;;;;;;5052389;28;20457;-76
2022/05/23 09:06:15;;;;;;;58.20;2.83;;;;;;;;;;5052304;28;20540;-76
2022/05/23 09:08:48;;;;;;;58.90;2.70;;;;;;;;;;5050781;28;20464;-76
2022/05/23 09:11:21;;;;;;;59.07;3.00;;;;;;;;;;5051071;28;20469;-76
2022/05/23 09:13:48;;;;;;;59.10;2.90;;;;;;;;;;5052054;28;20532;-76
2022/05/23 09:16:15;;;;;;;58.47;2.70;;;;;;;;;;5051974;28;20464;-76
2022/05/23 09:18:48;;;;;;;61.33;3.63;;;;;;;;;;5051504;28;20482;-76
2022/05/23 09:21:15;;;;;;;58.67;3.07;;;;;;;;;;5051428;28;20520;-76
2022/05/23 09:23:45;;;;;;;59.00;3.40;;;;;;;;;;5051946;28;20451;-76
2022/05/23 09:26:17;;;;;;;58.47;2.90;;;;;;;;;;5051915;28;20554;-76
2022/05/23 09:28:44;;;;;;;58.63;3.30;;;;;;;;;;5050482;28;20457;-76
2022/05/23 09:31:17;;;;;;;59.70;3.30;;;;;;;;;;5051570;28;20480;-76
2022/05/23 09:33:47;;;;;;;58.47;3.13;;;;;;;;;;5051559;28;20486;-76
2022/05/23 09:36:18;;;;;;;58.50;2.60;;;;;;;;;;5051872;28;20447;-76
2022/05/23 09:38:47;;;;;;;58.90;2.97;;;;;;;;;;5051103;28;20484;-76
2022/05/23 09:41:28;;;;;;;58.17;2.70;;;;;;;;;;5051377;28;20984;-76
2022/05/23 09:49:47;;;;;;;58.57;3.20;;;;;;;;;;5051395;28;20935;-74
2022/05/23 09:52:17;;;;;;;58.73;3.30;;;;;;;;;;5051297;28;20486;-74
2022/05/23 09:54:46;;;;;;;59.00;3.27;;;;;;;;;;5051055;28;20448;-74
2022/05/23 09:57:20;;;;;;;58.67;2.70;;;;;;;;;;5051003;28;20542;-74
2022/05/23 09:59:55;;;;;;;58.77;3.07;;;;;;;;;;5051647;28;20456;-74
2022/05/23 10:02:24;;;;;;;58.43;2.40;;;;;;;;;;5050980;28;20468;-74
2022/05/23 10:04:53;;;;;;;59.10;3.63;;;;;;;;;;5051368;28;20440;-75
2022/05/23 10:07:21;;;;;;;59.03;3.13;;;;;;;;;;5050010;28;20454;-75
2022/05/23 10:09:56;;;;;;;59.60;3.40;;;;;;;;;;5051117;28;20458;-75
2022/05/23 10:12:24;;;;;;;59.60;3.13;;;;;;;;;;5051123;28;20554;-76
2022/05/23 10:14:53;;;;;;;59.60;2.97;;;;;;;;;;5050995;28;20542;-75
2022/05/23 10:17:27;;;;;;;60.00;4.03;;;;;;;;;;5061847;28;20920;-77
2022/05/23 10:20:16;;;;;;;58.47;3.00;;;;;;;;;;5071462;28;20447;-77
2022/05/23 10:22:54;;;;;;;61.10;3.33;;;;;;;;;;5072599;28;20447;-75
2022/05/23 10:25:22;;;;;;;58.50;2.80;;;;;;;;;;5075618;28;20449;-75
2022/05/23 10:27:52;;;;;;;59.20;3.57;;;;;;;;;;5074629;28;20530;-75
2022/05/23 10:30:20;;;;;;;58.70;3.03;;;;;;;;;;5075499;28;20483;-75
2022/05/23 10:32:49;;;;;;;59.23;2.77;;;;;;;;;;5075441;28;20453;-75
2022/05/23 10:35:20;;;;;;;58.57;2.57;;;;;;;;;;5075389;28;20816;-75
2022/05/23 10:37:47;;;;;;;58.80;2.90;;;;;;;;;;5074582;28;20574;-75
2022/05/23 10:43:06;;;;;;;58.50;2.60;;;;;;;;;;5075091;28;20468;-76
2022/05/23 10:45:36;;;;;;;58.80;3.00;;;;;;;;;;5075311;28;20447;-76
2022/05/23 10:48:21;;;;;;;58.80;2.97;;;;;;;;;;5074488;28;20739;-77
2022/05/23 10:50:53;;;;;;;60.50;3.07;;;;;;;;;;5065319;28;20475;-77
2022/05/23 10:53:23;;;;;;;59.10;3.50;;;;;;;;;;5075081;28;20483;-76
2022/05/23 10:55:53;;;;;;;60.30;3.27;;;;;;;;;;5074931;28;20475;-76
2022/05/23 10:58:25;;;;;;;58.90;3.20;;;;;;;;;;5074200;28;20484;-78
2022/05/23 11:00:54;;;;;;;60.37;4.27;;;;;;;;;;5074864;28;20516;-76
2022/05/23 11:03:27;;;;;;;59.03;3.20;;;;;;;;;;5074873;28;20454;-76
2022/05/23 11:05:58;;;;;;;59.00;3.03;;;;;;;;;;5074982;28;20523;-76
2022/05/23 11:08:32;;;;;;;62.23;3.60;;;;;;;;;;5074028;28;20439;-76
2022/05/23 11:11:03;;;;;;;58.63;3.10;;;;;;;;;;5074138;28;20561;-76
2022/05/23 11:13:47;;;;;;;60.10;3.40;;;;;;;;;;5074653;28;20538;-76
2022/05/23 11:16:19;;;;;;;59.30;3.20;;;;;;;;;;5074630;28;20487;-75
2022/05/23 11:18:56;;;;;;;58.87;2.93;;;;;;;;;;5073757;28;20565;-76
2022/05/23 11:21:29;;;;;;;60.20;4.30;;;;;;;;;;5074483;28;20467;-75
2022/05/23 11:24:01;;;;;;;60.43;4.47;;;;;;;;;;5074321;28;20490;-75
2022/05/23 11:26:30;;;;;;;59.90;4.47;;;;;;;;;;5074189;28;20469;-75
2022/05/23 11:34:33;;;;;;;60.20;4.03;;;;;;;;;;5073817;28;20454;-76
2022/05/23 11:37:42;;;;;;;60.47;3.87;;;;;;;;;;5074103;28;20506;-76
2022/05/23 11:39:58;;;;;;;59.60;3.53;;;;;;;;;;5073807;28;20503;-76
2022/05/23 11:42:29;;;;;;;60.53;3.93;;;;;;;;;;5074081;28;20554;-76
2022/05/23 11:45:56;;;;;;;61.77;4.77;;;;;;;;;;5074273;28;20530;-77
2022/05/23 11:47:51;;;;;;;59.20;3.50;;;;;;;;;;5073994;28;20432;-77
2022/05/23 11:50:23;;;;;;;60.67;3.73;;;;;;;;;;5074547;28;21054;-78
2022/05/23 11:53:03;;;;;;;60.57;4.70;;;;;;;;;;5077105;28;20461;-77
2022/05/23 11:55:48;;;;;;;59.80;3.50;;;;;;;;;;5075875;28;20424;-77
2022/05/23 11:58:23;;;;;;;59.57;3.30;;;;;;;;;;5075507;28;20582;-77
2022/05/23 12:01:02;;;;;;;62.10;4.03;;;;;;;;;;5074026;28;20917;-77
2022/05/23 12:03:49;;;;;;;60.50;3.57;;;;;;;;;;5074084;28;20529;-76
2022/05/23 12:06:18;;;;;;;58.80;3.27;;;;;;;;;;5073440;28;20815;-76
2022/05/23 12:09:01;;;;;;;62.57;4.53;;;;;;;;;;5073057;28;20467;-76
2022/05/23 12:11:29;;;;;;;59.70;3.40;;;;;;;;;;5073392;28;20509;-76
2022/05/23 12:13:59;;;;;;;69.73;3.67;;;;;;;;;;5073372;28;20830;-76
2022/05/23 12:16:41;;;;;;;59.17;3.40;;;;;;;;;;5073391;28;20451;-76
2022/05/23 12:19:17;;;;;;;64.63;4.00;;;;;;;;;;5072766;28;20517;-76
2022/05/23 12:21:45;;;;;;;59.17;3.07;;;;;;;;;;5073278;28;20504;-76
2022/05/23 12:24:25;;;;;;;61.10;3.03;;;;;;;;;;5073691;28;20469;-76
2022/05/23 12:26:54;;;;;;;59.07;2.80;;;;;;;;;;5073018;28;21029;-76
2022/05/23 12:29:32;;;;;;;58.97;2.77;;;;;;;;;;5072864;28;20450;-76
2022/05/23 12:32:11;;;;;;;58.87;3.00;;;;;;;;;;5072953;28;20499;-76
2022/05/23 12:34:42;;;;;;;61.00;4.20;;;;;;;;;;5072806;28;20463;-76
2022/05/23 12:37:15;;;;;;;59.87;3.50;;;;;;;;;;5072624;28;20451;-78
2022/05/23 12:39:54;;;;;;;62.80;3.47;;;;;;;;;;5072639;28;20487;-76
2022/05/23 12:42:36;;;;;;;61.30;3.63;;;;;;;;;;5072889;28;20478;-78
2022/05/23 12:45:18;;;;;;;60.27;4.30;;;;;;;;;;5072835;28;20431;-77
2022/05/23 12:48:10;;;;;;;59.60;3.47;;;;;;;;;;5072402;28;20436;-75
2022/05/23 12:50:46;;;;;;;58.57;2.77;;;;;;;;;;5072711;28;20467;-75
2022/05/23 12:53:24;;;;;;;61.00;3.00;;;;;;;;;;5072780;28;20439;-75
2022/05/23 12:55:58;;;;;;;59.07;3.07;;;;;;;;;;5072498;28;20538;-77
2022/05/23 12:58:43;;;;;;;59.77;3.60;;;;;;;;;;5072778;28;20549;-76
2022/05/23 13:01:11;;;;;;;59.00;2.90;;;;;;;;;;5042052;28;20557;-76
2022/05/23 13:03:42;;;;;;;58.90;2.90;;;;;;;;;;5073026;28;20493;-76
2022/05/23 13:06:11;;;;;;;59.10;2.83;;;;;;;;;;5072721;28;20446;-76
2022/05/23 13:08:43;;;;;;;58.80;2.70;;;;;;;;;;5072548;28;20438;-76
2022/05/23 13:11:13;;;;;;;59.63;3.47;;;;;;;;;;5072548;28;20474;-76
2022/05/23 13:13:42;;;;;;;59.40;3.27;;;;;;;;;;5072538;28;20499;-76
2022/05/23 13:16:16;;;;;;;58.70;2.80;;;;;;;;;;5072617;28;20491;-77
2022/05/23 13:24:13;;;;;;;59.70;3.53;;;;;;;;;;5072503;28;20480;-77
2022/05/23 13:26:43;;;;;;;58.07;2.60;;;;;;;;;;5072242;28;20541;-77
2022/05/23 13:29:11;;;;;;;59.33;2.67;;;;;;;;;;5072013;28;20454;-76
2022/05/23 13:31:38;;;;;;;59.37;3.47;;;;;;;;;;5072026;28;21069;-76
2022/05/23 13:34:10;;;;;;;58.57;2.90;;;;;;;;;;5072155;28;20865;-76
2022/05/23 13:36:42;;;;;;;59.77;3.50;;;;;;;;;;5072049;28;20459;-77
2022/05/23 13:39:14;;;;;;;60.70;3.57;;;;;;;;;;5071297;28;20579;-76
2022/05/23 13:41:43;;;;;;;58.97;2.87;;;;;;;;;;5071770;28;20999;-77
2022/05/23 13:44:20;;;;;;;59.03;2.60;;;;;;;;;;5072225;28;20455;-77
2022/05/23 13:46:47;;;;;;;70.90;3.40;;;;;;;;;;5072627;28;20533;-77
2022/05/23 13:49:18;;;;;;;58.70;2.57;;;;;;;;;;5071812;28;20991;-77
2022/05/23 13:51:47;;;;;;;58.60;2.60;;;;;;;;;;5071916;28;20471;-76
2022/05/23 13:54:17;;;;;;;58.70;2.47;;;;;;;;;;5071708;28;20492;-77
2022/05/23 13:56:47;;;;;;;58.57;2.33;;;;;;;;;;5071839;28;20500;-76
2022/05/23 13:59:18;;;;;;;58.50;2.43;;;;;;;;;;5069732;28;20589;-77
2022/05/23 14:01:47;;;;;;;58.50;2.67;;;;;;;;;;5072586;28;20579;-77
2022/05/23 14:04:16;;;;;;;59.00;2.40;;;;;;;;;;5072129;28;20448;-78
2022/05/23 14:06:45;;;;;;;58.70;2.30;;;;;;;;;;5071842;28;20887;-76
2022/05/23 14:09:13;;;;;;;57.87;2.60;;;;;;;;;;5071400;28;20538;-76
2022/05/23 14:11:41;;;;;;;58.77;2.90;;;;;;;;;;5071676;28;20563;-76
2022/05/23 14:14:17;;;;;;;58.27;2.60;;;;;;;;;;5071709;28;20534;-76
2022/05/23 14:16:50;;;;;;;58.43;2.63;;;;;;;;;;5071600;28;20534;-76
2022/05/23 14:19:21;;;;;;;60.67;3.47;;;;;;;;;;5070782;28;20557;-76
2022/05/23 14:21:48;;;;;;;58.57;2.30;;;;;;;;;;5071520;28;20514;-76
2022/05/23 14:24:17;;;;;;;58.27;2.47;;;;;;;;;;5071696;28;20490;-76
2022/05/23 14:26:44;;;;;;;61.17;2.67;;;;;;;;;;5071465;28;20542;-76
2022/05/23 14:29:14;;;;;;;57.87;1.97;;;;;;;;;;5071067;28;20488;-76
2022/05/23 14:31:47;;;;;;;57.97;2.20;;;;;;;;;;5071277;28;20863;-77
2022/05/23 14:34:25;;;;;;;58.43;3.10;;;;;;;;;;5071577;28;20481;-76
2022/05/23 14:36:53;;;;;;;57.77;2.00;;;;;;;;;;5071514;28;20814;-76
2022/05/23 14:39:23;;;;;;;58.50;2.83;;;;;;;;;;5072027;28;20491;-77
2022/05/23 14:41:50;;;;;;;65.20;2.80;;;;;;;;;;5074467;28;20529;-78
2022/05/23 14:44:26;;;;;;;58.83;2.57;;;;;;;;;;5072748;28;20994;-76
2022/05/23 14:47:00;;;;;;;58.10;2.30;;;;;;;;;;5071759;28;20939;-76
2022/05/23 14:49:29;;;;;;;58.50;2.67;;;;;;;;;;5071734;28;20534;-76
2022/05/23 14:51:57;;;;;;;58.03;2.23;;;;;;;;;;5074787;28;20533;-76
2022/05/23 14:57:11;;;;;;;58.80;2.90;;;;;;;;;;5071329;28;20912;-76
2022/05/23 15:02:29;;;;;;;61.03;3.67;;;;;;;;;;5071982;28;20493;-76
2022/05/23 15:04:59;;;;;;;60.83;2.63;;;;;;;;;;5073221;28;20447;-76
2022/05/23 15:07:26;;;;;;;58.63;2.77;;;;;;;;;;5072883;28;20512;-76
2022/05/23 15:09:54;;;;;;;58.63;2.60;;;;;;;;;;5083077;28;20474;-76
2022/05/23 15:12:23;;;;;;;59.20;2.90;;;;;;;;;;5083850;28;20551;-76
2022/05/23 15:14:50;;;;;;;58.77;2.70;;;;;;;;;;5091535;28;20722;-76
2022/05/23 15:17:19;;;;;;;58.37;2.40;;;;;;;;;;5091569;28;20432;-76
2022/05/23 15:19:47;;;;;;;58.37;2.47;;;;;;;;;;5098486;28;20490;-76
2022/05/23 15:22:17;;;;;;;60.47;2.93;;;;;;;;;;5099821;28;20467;-76
2022/05/23 15:24:45;;;;;;;58.40;2.67;;;;;;;;;;5099517;28;20503;-76
2022/05/23 15:27:12;;;;;;;58.90;2.60;;;;;;;;;;5097655;28;20515;-75
2022/05/23 15:29:39;;;;;;;59.33;2.83;;;;;;;;;;5096394;28;20440;-75
2022/05/23 15:32:07;;;;;;;59.10;2.77;;;;;;;;;;5099051;28;20471;-75
2022/05/23 15:34:34;;;;;;;59.10;2.67;;;;;;;;;;5097823;28;20453;-76
2022/05/23 15:37:03;;;;;;;58.80;2.70;;;;;;;;;;5096843;28;20443;-75
2022/05/23 15:39:30;;;;;;;59.30;2.80;;;;;;;;;;5097293;28;20505;-76
2022/05/23 15:41:57;;;;;;;58.87;2.60;;;;;;;;;;5099475;28;20460;-76
2022/05/23 15:44:35;;;;;;;59.23;3.23;;;;;;;;;;5098402;28;20477;-76
2022/05/23 15:47:02;;;;;;;59.40;3.10;;;;;;;;;;5099463;28;20466;-76
2022/05/23 15:49:30;;;;;;;58.60;2.57;;;;;;;;;;5099202;28;20445;-75
2022/05/23 15:52:01;;;;;;;58.90;3.03;;;;;;;;;;5099428;28;20460;-76